Airfield :







YOU CAN JOIN US ON...

 
LOGIN :

Register | Disclaimer

   EN    FR    IT 

 









Legend :    VFR   Marginal VFR   IFR   Intensive IFR   Very Intensive IFR
Visi :
Ceiling :
>= 8 km
>= 3000ft
5 to 8 km
1000 to 3000 ft
1500m to 5 km
500 to 1000 ft
800 to 1500m
200 to 500 ft
< 800m
< 200 ft
Symbols :   Thunderstorms  Fog  Heavy snow  Heavy precipitations  Wind > 20 kt






- Airport Elevation : 39 ft
- IATA code : YNA


CYNA - Natashquan

CURRENT METAR :
  • 280200Z AUTO 16006KT 9SM BKN150 BKN170 06/04 A3009 RMK SLP190

EXPIRED METARs :
  • 280100Z AUTO 13006KT 9SM FEW070 06/04 A3010 RMK SLP194
  • 280000Z AUTO 13007KT 9SM FEW100 07/04 A3012 RMK SLP201

TAF TAF CYNA
Valid from the 28 at 02:00 until the 28 at 14:00 UTC


280140Z 2802/2814 VRB03KT P6SM FEW050
FM280300 15008KT P6SM SCT004 SCT015 OVC030
TEMPO 2803/2807 2SM BR BKN004
FM280700 VRB03KT 1SM BR OVC003
TEMPO 2807/2810 3SM -SHRA -DZ BR OVC008
FM281000 VRB03KT 1SM BR OVC003
TEMPO 2810/2813 3SM BR OVC008
FM281300 25008KT 3SM BR OVC008
TEMPO 2813/2814 P6SM NSW SCT008 BKN030 RMK FCST BASED ON AUTO OBS. NXT FCST BY 280800Z
CZUL FIR / North America



MET'MAP, your aeronautical weather chart ! - Copyright ORBIFLY December 2007 - Disclaimer

ORBIFLY MET'MAP TEAM :

Programming & Development : Alexandra Zaïnal
Concept & original design : Baudouin d'Aumeries
Assistance for programming : Marc-Olivier Méhu
Technical & hardware support : Manuel Goepfert

Contact : metmap@orbifly.com




SOURCES & CREDITS :

   NOAA